sensor_id;sensor_type;location;lat;lon;timestamp;P1;durP1;ratioP1;P2;durP2;ratioP2
57105;SDS011;62662;56.788;23.942;2022-10-16T00:00:57;29.33;;;21.38;;
57105;SDS011;62662;56.788;23.942;2022-10-16T00:03:24;32.58;;;20.08;;
57105;SDS011;62662;56.788;23.942;2022-10-16T00:05:58;29.15;;;19.98;;
57105;SDS011;62662;56.788;23.942;2022-10-16T00:08:26;28.42;;;21.20;;
57105;SDS011;62662;56.788;23.942;2022-10-16T00:13:33;34.55;;;22.30;;
57105;SDS011;62662;56.788;23.942;2022-10-16T00:16:01;31.52;;;20.33;;
57105;SDS011;62662;56.788;23.942;2022-10-16T00:18:29;26.42;;;19.77;;
57105;SDS011;62662;56.788;23.942;2022-10-16T00:21:01;29.70;;;20.17;;
57105;SDS011;62662;56.788;23.942;2022-10-16T00:28:27;29.60;;;20.75;;
57105;SDS011;62662;56.788;23.942;2022-10-16T00:30:55;26.52;;;17.20;;
57105;SDS011;62662;56.788;23.942;2022-10-16T00:33:23;27.25;;;20.40;;
57105;SDS011;62662;56.788;23.942;2022-10-16T00:35:51;32.65;;;20.08;;
57105;SDS011;62662;56.788;23.942;2022-10-16T00:38:18;27.50;;;18.70;;
57105;SDS011;62662;56.788;23.942;2022-10-16T00:40:44;28.77;;;19.65;;
57105;SDS011;62662;56.788;23.942;2022-10-16T00:43:12;29.85;;;21.02;;
57105;SDS011;62662;56.788;23.942;2022-10-16T00:45:58;29.20;;;20.60;;
57105;SDS011;62662;56.788;23.942;2022-10-16T00:48:25;27.85;;;20.20;;
57105;SDS011;62662;56.788;23.942;2022-10-16T00:50:53;26.02;;;19.88;;
57105;SDS011;62662;56.788;23.942;2022-10-16T00:53:20;24.40;;;19.67;;
57105;SDS011;62662;56.788;23.942;2022-10-16T00:55:48;30.55;;;20.63;;
57105;SDS011;62662;56.788;23.942;2022-10-16T00:58:15;27.95;;;20.13;;
57105;SDS011;62662;56.788;23.942;2022-10-16T01:00:42;32.60;;;19.95;;
57105;SDS011;62662;56.788;23.942;2022-10-16T01:03:26;27.05;;;19.55;;
57105;SDS011;62662;56.788;23.942;2022-10-16T01:08:38;28.65;;;19.25;;
57105;SDS011;62662;56.788;23.942;2022-10-16T01:11:11;27.83;;;19.67;;
57105;SDS011;62662;56.788;23.942;2022-10-16T01:13:46;29.58;;;21.15;;
57105;SDS011;62662;56.788;23.942;2022-10-16T01:16:24;29.38;;;21.00;;
57105;SDS011;62662;56.788;23.942;2022-10-16T01:18:59;30.42;;;21.38;;
57105;SDS011;62662;56.788;23.942;2022-10-16T01:21:36;29.35;;;21.15;;
57105;SDS011;62662;56.788;23.942;2022-10-16T01:27:06;32.20;;;21.10;;
57105;SDS011;62662;56.788;23.942;2022-10-16T01:30:17;32.05;;;22.38;;
57105;SDS011;62662;56.788;23.942;2022-10-16T01:35:26;31.52;;;23.30;;
57105;SDS011;62662;56.788;23.942;2022-10-16T01:40:34;28.80;;;22.13;;
57105;SDS011;62662;56.788;23.942;2022-10-16T01:43:05;34.22;;;23.95;;
57105;SDS011;62662;56.788;23.942;2022-10-16T01:45:33;33.55;;;23.33;;
57105;SDS011;62662;56.788;23.942;2022-10-16T01:48:02;33.03;;;23.58;;
57105;SDS011;62662;56.788;23.942;2022-10-16T01:50:35;33.92;;;24.60;;
57105;SDS011;62662;56.788;23.942;2022-10-16T01:53:06;33.15;;;23.05;;
57105;SDS011;62662;56.788;23.942;2022-10-16T01:55:38;39.22;;;22.77;;
57105;SDS011;62662;56.788;23.942;2022-10-16T01:58:11;33.60;;;25.00;;
57105;SDS011;62662;56.788;23.942;2022-10-16T02:00:39;35.80;;;23.23;;
57105;SDS011;62662;56.788;23.942;2022-10-16T02:03:10;33.80;;;24.55;;
57105;SDS011;62662;56.788;23.942;2022-10-16T02:13:10;35.28;;;23.58;;
57105;SDS011;62662;56.788;23.942;2022-10-16T02:15:42;34.00;;;22.60;;
57105;SDS011;62662;56.788;23.942;2022-10-16T02:18:09;32.10;;;23.77;;
57105;SDS011;62662;56.788;23.942;2022-10-16T02:20:40;34.78;;;24.88;;
57105;SDS011;62662;56.788;23.942;2022-10-16T02:23:19;32.88;;;24.58;;
57105;SDS011;62662;56.788;23.942;2022-10-16T02:25:57;34.08;;;23.83;;
57105;SDS011;62662;56.788;23.942;2022-10-16T02:28:28;34.78;;;24.20;;
57105;SDS011;62662;56.788;23.942;2022-10-16T02:31:08;38.25;;;25.23;;
57105;SDS011;62662;56.788;23.942;2022-10-16T02:33:38;32.95;;;24.02;;
57105;SDS011;62662;56.788;23.942;2022-10-16T02:36:08;33.30;;;24.17;;
57105;SDS011;62662;56.788;23.942;2022-10-16T02:38:36;33.38;;;23.88;;
57105;SDS011;62662;56.788;23.942;2022-10-16T02:41:06;36.70;;;23.73;;
57105;SDS011;62662;56.788;23.942;2022-10-16T02:43:33;34.90;;;24.23;;
57105;SDS011;62662;56.788;23.942;2022-10-16T02:46:00;32.85;;;24.15;;
57105;SDS011;62662;56.788;23.942;2022-10-16T02:48:27;34.72;;;24.63;;
57105;SDS011;62662;56.788;23.942;2022-10-16T02:50:54;30.80;;;22.48;;
57105;SDS011;62662;56.788;23.942;2022-10-16T02:53:21;32.20;;;24.45;;
57105;SDS011;62662;56.788;23.942;2022-10-16T02:55:48;32.05;;;23.95;;
57105;SDS011;62662;56.788;23.942;2022-10-16T02:58:15;36.10;;;25.10;;
57105;SDS011;62662;56.788;23.942;2022-10-16T03:00:42;38.33;;;24.17;;
57105;SDS011;62662;56.788;23.942;2022-10-16T03:03:09;33.35;;;24.33;;
57105;SDS011;62662;56.788;23.942;2022-10-16T03:05:36;33.95;;;23.92;;
57105;SDS011;62662;56.788;23.942;2022-10-16T03:08:03;32.13;;;22.98;;
57105;SDS011;62662;56.788;23.942;2022-10-16T03:10:30;33.35;;;23.20;;
57105;SDS011;62662;56.788;23.942;2022-10-16T03:12:57;35.92;;;23.85;;
57105;SDS011;62662;56.788;23.942;2022-10-16T03:15:24;39.05;;;24.65;;
57105;SDS011;62662;56.788;23.942;2022-10-16T03:17:52;33.28;;;23.15;;
57105;SDS011;62662;56.788;23.942;2022-10-16T03:20:19;33.65;;;22.90;;
57105;SDS011;62662;56.788;23.942;2022-10-16T03:22:45;40.83;;;25.63;;
57105;SDS011;62662;56.788;23.942;2022-10-16T03:25:12;36.20;;;24.85;;
57105;SDS011;62662;56.788;23.942;2022-10-16T03:27:39;35.80;;;23.30;;
57105;SDS011;62662;56.788;23.942;2022-10-16T03:30:06;34.42;;;22.73;;
57105;SDS011;62662;56.788;23.942;2022-10-16T03:32:34;34.95;;;22.70;;
57105;SDS011;62662;56.788;23.942;2022-10-16T03:35:01;32.78;;;24.35;;
57105;SDS011;62662;56.788;23.942;2022-10-16T03:37:28;32.40;;;23.52;;
57105;SDS011;62662;56.788;23.942;2022-10-16T03:39:55;32.53;;;22.73;;
57105;SDS011;62662;56.788;23.942;2022-10-16T03:42:22;34.60;;;22.48;;
57105;SDS011;62662;56.788;23.942;2022-10-16T03:44:50;29.17;;;22.17;;
57105;SDS011;62662;56.788;23.942;2022-10-16T03:47:17;30.95;;;22.75;;
57105;SDS011;62662;56.788;23.942;2022-10-16T03:49:48;28.58;;;21.52;;
57105;SDS011;62662;56.788;23.942;2022-10-16T03:52:15;28.58;;;22.05;;
57105;SDS011;62662;56.788;23.942;2022-10-16T03:54:42;29.77;;;21.77;;
57105;SDS011;62662;56.788;23.942;2022-10-16T03:57:09;29.48;;;21.88;;
57105;SDS011;62662;56.788;23.942;2022-10-16T03:59:36;29.92;;;21.13;;
57105;SDS011;62662;56.788;23.942;2022-10-16T04:02:03;28.77;;;21.13;;
57105;SDS011;62662;56.788;23.942;2022-10-16T04:04:30;27.58;;;21.70;;
57105;SDS011;62662;56.788;23.942;2022-10-16T04:06:57;29.52;;;20.77;;
57105;SDS011;62662;56.788;23.942;2022-10-16T04:09:24;30.02;;;21.17;;
57105;SDS011;62662;56.788;23.942;2022-10-16T04:11:50;29.85;;;21.55;;
57105;SDS011;62662;56.788;23.942;2022-10-16T04:14:17;30.98;;;21.42;;
57105;SDS011;62662;56.788;23.942;2022-10-16T04:16:45;31.95;;;23.38;;
57105;SDS011;62662;56.788;23.942;2022-10-16T04:19:12;33.72;;;23.77;;
57105;SDS011;62662;56.788;23.942;2022-10-16T04:21:39;33.92;;;23.00;;
57105;SDS011;62662;56.788;23.942;2022-10-16T04:24:06;32.63;;;23.42;;
57105;SDS011;62662;56.788;23.942;2022-10-16T04:26:33;34.42;;;22.60;;
57105;SDS011;62662;56.788;23.942;2022-10-16T04:29:00;37.72;;;23.08;;
57105;SDS011;62662;56.788;23.942;2022-10-16T04:31:27;40.35;;;24.33;;
57105;SDS011;62662;56.788;23.942;2022-10-16T04:33:54;41.38;;;26.65;;
57105;SDS011;62662;56.788;23.942;2022-10-16T04:36:21;36.13;;;26.10;;
57105;SDS011;62662;56.788;23.942;2022-10-16T04:38:53;37.63;;;25.67;;
57105;SDS011;62662;56.788;23.942;2022-10-16T04:41:20;39.17;;;27.05;;
57105;SDS011;62662;56.788;23.942;2022-10-16T04:43:47;40.15;;;26.58;;
57105;SDS011;62662;56.788;23.942;2022-10-16T04:46:15;40.65;;;25.05;;
57105;SDS011;62662;56.788;23.942;2022-10-16T04:48:42;45.85;;;27.10;;
57105;SDS011;62662;56.788;23.942;2022-10-16T04:51:09;46.50;;;28.85;;
57105;SDS011;62662;56.788;23.942;2022-10-16T04:53:36;44.30;;;27.73;;
57105;SDS011;62662;56.788;23.942;2022-10-16T04:56:04;44.42;;;27.88;;
57105;SDS011;62662;56.788;23.942;2022-10-16T04:58:32;46.35;;;28.85;;
57105;SDS011;62662;56.788;23.942;2022-10-16T05:00:59;46.20;;;27.80;;
57105;SDS011;62662;56.788;23.942;2022-10-16T05:03:26;49.05;;;29.73;;
57105;SDS011;62662;56.788;23.942;2022-10-16T05:05:53;53.08;;;30.83;;
57105;SDS011;62662;56.788;23.942;2022-10-16T05:08:20;51.75;;;30.90;;
57105;SDS011;62662;56.788;23.942;2022-10-16T05:10:47;52.35;;;31.30;;
57105;SDS011;62662;56.788;23.942;2022-10-16T05:13:15;51.60;;;31.38;;
57105;SDS011;62662;56.788;23.942;2022-10-16T05:15:42;49.10;;;31.08;;
57105;SDS011;62662;56.788;23.942;2022-10-16T05:18:12;60.78;;;35.63;;
57105;SDS011;62662;56.788;23.942;2022-10-16T05:20:40;58.22;;;34.97;;
57105;SDS011;62662;56.788;23.942;2022-10-16T05:23:08;54.25;;;33.28;;
57105;SDS011;62662;56.788;23.942;2022-10-16T05:25:36;67.93;;;36.47;;
57105;SDS011;62662;56.788;23.942;2022-10-16T05:28:03;60.72;;;35.38;;
57105;SDS011;62662;56.788;23.942;2022-10-16T05:30:30;65.50;;;34.80;;
57105;SDS011;62662;56.788;23.942;2022-10-16T05:32:57;68.72;;;34.83;;
57105;SDS011;62662;56.788;23.942;2022-10-16T05:35:25;53.60;;;34.95;;
57105;SDS011;62662;56.788;23.942;2022-10-16T05:37:52;56.17;;;34.15;;
57105;SDS011;62662;56.788;23.942;2022-10-16T05:40:20;55.55;;;34.20;;
57105;SDS011;62662;56.788;23.942;2022-10-16T05:42:47;59.83;;;35.90;;
57105;SDS011;62662;56.788;23.942;2022-10-16T05:45:14;60.05;;;35.22;;
57105;SDS011;62662;56.788;23.942;2022-10-16T05:47:41;56.38;;;33.80;;
57105;SDS011;62662;56.788;23.942;2022-10-16T05:50:08;44.58;;;31.75;;
57105;SDS011;62662;56.788;23.942;2022-10-16T05:52:35;49.08;;;32.20;;
57105;SDS011;62662;56.788;23.942;2022-10-16T05:55:02;52.75;;;34.08;;
57105;SDS011;62662;56.788;23.942;2022-10-16T05:57:30;49.72;;;33.20;;
57105;SDS011;62662;56.788;23.942;2022-10-16T05:59:57;51.08;;;32.55;;
57105;SDS011;62662;56.788;23.942;2022-10-16T06:02:24;51.88;;;31.35;;
57105;SDS011;62662;56.788;23.942;2022-10-16T06:04:51;60.10;;;33.55;;
57105;SDS011;62662;56.788;23.942;2022-10-16T06:07:21;50.55;;;32.13;;
57105;SDS011;62662;56.788;23.942;2022-10-16T06:09:50;48.40;;;32.53;;
57105;SDS011;62662;56.788;23.942;2022-10-16T06:12:18;48.70;;;32.88;;
57105;SDS011;62662;56.788;23.942;2022-10-16T06:14:46;50.40;;;32.42;;
57105;SDS011;62662;56.788;23.942;2022-10-16T06:17:13;47.50;;;33.85;;
57105;SDS011;62662;56.788;23.942;2022-10-16T06:19:41;50.30;;;32.33;;
57105;SDS011;62662;56.788;23.942;2022-10-16T06:22:08;51.42;;;32.05;;
57105;SDS011;62662;56.788;23.942;2022-10-16T06:24:35;48.20;;;32.13;;
57105;SDS011;62662;56.788;23.942;2022-10-16T06:27:03;55.38;;;34.05;;
57105;SDS011;62662;56.788;23.942;2022-10-16T06:29:31;55.22;;;34.75;;
57105;SDS011;62662;56.788;23.942;2022-10-16T06:31:58;58.10;;;33.47;;
57105;SDS011;62662;56.788;23.942;2022-10-16T06:34:25;53.50;;;33.13;;
57105;SDS011;62662;56.788;23.942;2022-10-16T06:36:52;46.60;;;32.00;;
57105;SDS011;62662;56.788;23.942;2022-10-16T06:39:19;49.35;;;32.63;;
57105;SDS011;62662;56.788;23.942;2022-10-16T06:41:46;47.65;;;33.08;;
57105;SDS011;62662;56.788;23.942;2022-10-16T06:44:15;48.00;;;32.05;;
57105;SDS011;62662;56.788;23.942;2022-10-16T06:46:42;48.30;;;32.90;;
57105;SDS011;62662;56.788;23.942;2022-10-16T06:49:09;51.90;;;33.53;;
57105;SDS011;62662;56.788;23.942;2022-10-16T06:51:37;53.63;;;32.90;;
57105;SDS011;62662;56.788;23.942;2022-10-16T06:54:09;51.30;;;34.20;;
57105;SDS011;62662;56.788;23.942;2022-10-16T06:56:36;52.63;;;32.28;;
57105;SDS011;62662;56.788;23.942;2022-10-16T06:59:04;54.88;;;31.80;;
57105;SDS011;62662;56.788;23.942;2022-10-16T07:01:31;47.67;;;31.70;;
57105;SDS011;62662;56.788;23.942;2022-10-16T07:03:59;50.60;;;32.55;;
57105;SDS011;62662;56.788;23.942;2022-10-16T07:06:30;46.35;;;32.50;;
57105;SDS011;62662;56.788;23.942;2022-10-16T07:09:00;45.50;;;31.10;;
57105;SDS011;62662;56.788;23.942;2022-10-16T07:11:29;48.03;;;31.17;;
57105;SDS011;62662;56.788;23.942;2022-10-16T07:13:57;50.13;;;29.90;;
57105;SDS011;62662;56.788;23.942;2022-10-16T07:16:27;46.60;;;33.00;;
57105;SDS011;62662;56.788;23.942;2022-10-16T07:18:58;46.15;;;31.45;;
57105;SDS011;62662;56.788;23.942;2022-10-16T07:21:28;45.53;;;29.88;;
57105;SDS011;62662;56.788;23.942;2022-10-16T07:23:57;43.05;;;31.08;;
57105;SDS011;62662;56.788;23.942;2022-10-16T07:26:28;49.13;;;31.58;;
57105;SDS011;62662;56.788;23.942;2022-10-16T07:28:57;47.55;;;32.08;;
57105;SDS011;62662;56.788;23.942;2022-10-16T07:31:25;48.75;;;31.77;;
57105;SDS011;62662;56.788;23.942;2022-10-16T07:33:53;47.75;;;32.55;;
57105;SDS011;62662;56.788;23.942;2022-10-16T07:36:21;49.72;;;33.13;;
57105;SDS011;62662;56.788;23.942;2022-10-16T07:38:48;43.25;;;31.40;;
57105;SDS011;62662;56.788;23.942;2022-10-16T07:41:20;44.80;;;33.15;;
57105;SDS011;62662;56.788;23.942;2022-10-16T07:43:48;45.13;;;31.35;;
57105;SDS011;62662;56.788;23.942;2022-10-16T07:46:18;48.33;;;31.45;;
57105;SDS011;62662;56.788;23.942;2022-10-16T07:48:47;56.63;;;33.22;;
57105;SDS011;62662;56.788;23.942;2022-10-16T07:51:16;46.92;;;30.38;;
57105;SDS011;62662;56.788;23.942;2022-10-16T07:53:44;48.97;;;32.53;;
57105;SDS011;62662;56.788;23.942;2022-10-16T07:56:14;49.08;;;31.70;;
57105;SDS011;62662;56.788;23.942;2022-10-16T07:58:42;46.03;;;31.73;;
57105;SDS011;62662;56.788;23.942;2022-10-16T08:01:11;50.60;;;32.85;;
57105;SDS011;62662;56.788;23.942;2022-10-16T08:03:43;47.15;;;32.15;;
57105;SDS011;62662;56.788;23.942;2022-10-16T08:06:13;44.28;;;30.75;;
57105;SDS011;62662;56.788;23.942;2022-10-16T08:08:41;43.45;;;30.98;;
57105;SDS011;62662;56.788;23.942;2022-10-16T08:11:08;46.28;;;32.53;;
57105;SDS011;62662;56.788;23.942;2022-10-16T08:13:35;43.85;;;31.88;;
57105;SDS011;62662;56.788;23.942;2022-10-16T08:16:03;48.50;;;30.95;;
57105;SDS011;62662;56.788;23.942;2022-10-16T08:18:34;49.47;;;31.52;;
57105;SDS011;62662;56.788;23.942;2022-10-16T08:21:02;48.65;;;32.72;;
57105;SDS011;62662;56.788;23.942;2022-10-16T08:23:31;48.70;;;30.48;;
57105;SDS011;62662;56.788;23.942;2022-10-16T08:26:04;44.88;;;32.40;;
57105;SDS011;62662;56.788;23.942;2022-10-16T08:28:32;51.53;;;32.58;;
57105;SDS011;62662;56.788;23.942;2022-10-16T08:31:07;49.95;;;32.88;;
57105;SDS011;62662;56.788;23.942;2022-10-16T08:33:35;53.92;;;33.83;;
57105;SDS011;62662;56.788;23.942;2022-10-16T08:36:03;45.40;;;31.88;;
57105;SDS011;62662;56.788;23.942;2022-10-16T08:38:32;49.63;;;32.63;;
57105;SDS011;62662;56.788;23.942;2022-10-16T08:41:02;49.20;;;34.03;;
57105;SDS011;62662;56.788;23.942;2022-10-16T08:43:41;50.28;;;34.20;;
57105;SDS011;62662;56.788;23.942;2022-10-16T08:49:12;53.45;;;35.55;;
57105;SDS011;62662;56.788;23.942;2022-10-16T08:51:40;47.92;;;34.63;;
57105;SDS011;62662;56.788;23.942;2022-10-16T08:56:42;50.78;;;34.85;;
57105;SDS011;62662;56.788;23.942;2022-10-16T08:59:10;56.80;;;36.13;;
57105;SDS011;62662;56.788;23.942;2022-10-16T09:01:41;51.72;;;35.35;;
57105;SDS011;62662;56.788;23.942;2022-10-16T09:07:48;53.20;;;35.67;;
57105;SDS011;62662;56.788;23.942;2022-10-16T09:16:38;52.10;;;33.90;;
57105;SDS011;62662;56.788;23.942;2022-10-16T09:21:45;53.63;;;34.20;;
57105;SDS011;62662;56.788;23.942;2022-10-16T09:24:17;47.30;;;33.72;;
57105;SDS011;62662;56.788;23.942;2022-10-16T09:26:50;48.97;;;33.60;;
57105;SDS011;62662;56.788;23.942;2022-10-16T09:29:19;55.33;;;36.40;;
57105;SDS011;62662;56.788;23.942;2022-10-16T09:31:47;52.67;;;33.90;;
57105;SDS011;62662;56.788;23.942;2022-10-16T09:36:55;58.47;;;35.35;;
57105;SDS011;62662;56.788;23.942;2022-10-16T09:39:25;53.05;;;36.45;;
57105;SDS011;62662;56.788;23.942;2022-10-16T09:41:52;51.55;;;34.88;;
57105;SDS011;62662;56.788;23.942;2022-10-16T09:44:28;56.42;;;36.45;;
57105;SDS011;62662;56.788;23.942;2022-10-16T09:49:31;48.55;;;34.00;;
57105;SDS011;62662;56.788;23.942;2022-10-16T09:52:05;51.50;;;33.92;;
57105;SDS011;62662;56.788;23.942;2022-10-16T09:54:56;47.38;;;33.55;;
57105;SDS011;62662;56.788;23.942;2022-10-16T09:57:25;48.75;;;34.30;;
57105;SDS011;62662;56.788;23.942;2022-10-16T09:59:53;51.38;;;33.58;;
57105;SDS011;62662;56.788;23.942;2022-10-16T10:02:29;51.80;;;33.78;;
57105;SDS011;62662;56.788;23.942;2022-10-16T10:05:00;54.65;;;35.00;;
57105;SDS011;62662;56.788;23.942;2022-10-16T10:07:32;49.45;;;33.50;;
57105;SDS011;62662;56.788;23.942;2022-10-16T10:10:03;48.60;;;32.85;;
57105;SDS011;62662;56.788;23.942;2022-10-16T10:12:32;57.63;;;35.33;;
57105;SDS011;62662;56.788;23.942;2022-10-16T10:15:12;54.40;;;33.05;;
57105;SDS011;62662;56.788;23.942;2022-10-16T10:17:48;47.30;;;32.78;;
57105;SDS011;62662;56.788;23.942;2022-10-16T10:20:29;55.28;;;33.22;;
57105;SDS011;62662;56.788;23.942;2022-10-16T10:22:57;48.95;;;32.83;;
57105;SDS011;62662;56.788;23.942;2022-10-16T10:25:32;56.70;;;33.28;;
57105;SDS011;62662;56.788;23.942;2022-10-16T10:33:48;44.30;;;31.13;;
57105;SDS011;62662;56.788;23.942;2022-10-16T10:36:38;45.63;;;30.25;;
57105;SDS011;62662;56.788;23.942;2022-10-16T10:39:27;49.22;;;31.13;;
57105;SDS011;62662;56.788;23.942;2022-10-16T10:55:46;43.28;;;28.35;;
57105;SDS011;62662;56.788;23.942;2022-10-16T11:01:17;38.35;;;26.88;;
57105;SDS011;62662;56.788;23.942;2022-10-16T11:03:58;38.60;;;26.02;;
57105;SDS011;62662;56.788;23.942;2022-10-16T11:09:25;42.58;;;25.30;;
57105;SDS011;62662;56.788;23.942;2022-10-16T11:14:34;43.25;;;27.95;;
57105;SDS011;62662;56.788;23.942;2022-10-16T11:17:08;38.60;;;26.00;;
57105;SDS011;62662;56.788;23.942;2022-10-16T11:22:38;40.75;;;27.85;;
57105;SDS011;62662;56.788;23.942;2022-10-16T11:25:15;45.20;;;30.77;;
57105;SDS011;62662;56.788;23.942;2022-10-16T11:30:57;38.50;;;25.65;;
57105;SDS011;62662;56.788;23.942;2022-10-16T11:33:39;45.40;;;27.90;;
57105;SDS011;62662;56.788;23.942;2022-10-16T11:36:22;45.20;;;27.73;;
57105;SDS011;62662;56.788;23.942;2022-10-16T11:55:49;38.78;;;26.05;;
57105;SDS011;62662;56.788;23.942;2022-10-16T12:06:44;44.08;;;27.35;;
57105;SDS011;62662;56.788;23.942;2022-10-16T12:11:59;38.88;;;26.25;;
57105;SDS011;62662;56.788;23.942;2022-10-16T12:17:24;39.05;;;25.98;;
57105;SDS011;62662;56.788;23.942;2022-10-16T12:22:47;38.40;;;26.33;;
57105;SDS011;62662;56.788;23.942;2022-10-16T12:25:36;47.13;;;29.77;;
57105;SDS011;62662;56.788;23.942;2022-10-16T12:30:43;38.03;;;26.88;;
57105;SDS011;62662;56.788;23.942;2022-10-16T12:33:43;37.38;;;25.95;;
57105;SDS011;62662;56.788;23.942;2022-10-16T12:36:29;39.33;;;25.63;;
57105;SDS011;62662;56.788;23.942;2022-10-16T12:39:01;37.28;;;25.13;;
57105;SDS011;62662;56.788;23.942;2022-10-16T12:41:30;34.92;;;23.70;;
57105;SDS011;62662;56.788;23.942;2022-10-16T12:43:58;35.95;;;24.13;;
57105;SDS011;62662;56.788;23.942;2022-10-16T12:51:40;35.38;;;25.38;;
57105;SDS011;62662;56.788;23.942;2022-10-16T12:56:44;36.00;;;24.95;;
57105;SDS011;62662;56.788;23.942;2022-10-16T13:05:09;32.45;;;23.55;;
57105;SDS011;62662;56.788;23.942;2022-10-16T13:18:13;35.33;;;23.88;;
57105;SDS011;62662;56.788;23.942;2022-10-16T13:26:26;38.30;;;25.87;;
57105;SDS011;62662;56.788;23.942;2022-10-16T13:28:59;37.05;;;27.38;;
57105;SDS011;62662;56.788;23.942;2022-10-16T13:31:28;36.60;;;26.38;;
57105;SDS011;62662;56.788;23.942;2022-10-16T13:33:58;35.38;;;25.98;;
57105;SDS011;62662;56.788;23.942;2022-10-16T13:39:00;34.97;;;26.45;;
57105;SDS011;62662;56.788;23.942;2022-10-16T13:41:36;43.53;;;28.02;;
57105;SDS011;62662;56.788;23.942;2022-10-16T13:44:04;43.33;;;29.25;;
57105;SDS011;62662;56.788;23.942;2022-10-16T13:46:39;38.53;;;28.05;;
57105;SDS011;62662;56.788;23.942;2022-10-16T13:49:16;40.13;;;24.38;;
57105;SDS011;62662;56.788;23.942;2022-10-16T13:51:56;36.78;;;27.77;;
57105;SDS011;62662;56.788;23.942;2022-10-16T13:54:25;35.05;;;25.23;;
57105;SDS011;62662;56.788;23.942;2022-10-16T13:56:56;32.80;;;25.05;;
57105;SDS011;62662;56.788;23.942;2022-10-16T13:59:50;33.45;;;24.80;;
57105;SDS011;62662;56.788;23.942;2022-10-16T14:04:50;33.45;;;26.27;;
57105;SDS011;62662;56.788;23.942;2022-10-16T14:07:23;32.17;;;25.25;;
57105;SDS011;62662;56.788;23.942;2022-10-16T14:09:53;34.45;;;24.80;;
57105;SDS011;62662;56.788;23.942;2022-10-16T14:12:21;35.95;;;25.13;;
57105;SDS011;62662;56.788;23.942;2022-10-16T14:14:54;32.75;;;24.70;;
57105;SDS011;62662;56.788;23.942;2022-10-16T14:17:30;36.22;;;26.27;;
57105;SDS011;62662;56.788;23.942;2022-10-16T14:20:03;35.45;;;24.92;;
57105;SDS011;62662;56.788;23.942;2022-10-16T14:22:37;30.50;;;23.48;;
57105;SDS011;62662;56.788;23.942;2022-10-16T14:28:26;28.60;;;22.73;;
57105;SDS011;62662;56.788;23.942;2022-10-16T14:30:58;32.58;;;23.30;;
57105;SDS011;62662;56.788;23.942;2022-10-16T14:36:11;30.10;;;23.73;;
57105;SDS011;62662;56.788;23.942;2022-10-16T14:38:41;29.77;;;22.42;;
57105;SDS011;62662;56.788;23.942;2022-10-16T14:41:10;31.05;;;24.88;;
57105;SDS011;62662;56.788;23.942;2022-10-16T14:43:39;35.17;;;25.23;;
57105;SDS011;62662;56.788;23.942;2022-10-16T14:46:12;35.08;;;25.90;;
57105;SDS011;62662;56.788;23.942;2022-10-16T14:48:50;38.55;;;28.55;;
57105;SDS011;62662;56.788;23.942;2022-10-16T14:51:22;44.78;;;30.75;;
57105;SDS011;62662;56.788;23.942;2022-10-16T14:53:49;45.78;;;31.50;;
57105;SDS011;62662;56.788;23.942;2022-10-16T14:56:21;45.83;;;32.47;;
57105;SDS011;62662;56.788;23.942;2022-10-16T14:58:51;47.55;;;31.65;;
57105;SDS011;62662;56.788;23.942;2022-10-16T15:01:22;46.50;;;31.52;;
57105;SDS011;62662;56.788;23.942;2022-10-16T15:03:53;46.97;;;33.58;;
57105;SDS011;62662;56.788;23.942;2022-10-16T15:06:21;50.92;;;33.72;;
57105;SDS011;62662;56.788;23.942;2022-10-16T15:08:49;47.90;;;32.42;;
57105;SDS011;62662;56.788;23.942;2022-10-16T15:11:16;51.30;;;35.85;;
57105;SDS011;62662;56.788;23.942;2022-10-16T15:13:45;54.33;;;36.58;;
57105;SDS011;62662;56.788;23.942;2022-10-16T15:16:13;63.70;;;37.03;;
57105;SDS011;62662;56.788;23.942;2022-10-16T15:18:42;54.63;;;35.85;;
57105;SDS011;62662;56.788;23.942;2022-10-16T15:21:44;50.65;;;34.58;;
57105;SDS011;62662;56.788;23.942;2022-10-16T15:24:05;51.80;;;34.28;;
57105;SDS011;62662;56.788;23.942;2022-10-16T15:26:41;44.47;;;32.30;;
57105;SDS011;62662;56.788;23.942;2022-10-16T15:29:09;57.03;;;36.65;;
57105;SDS011;62662;56.788;23.942;2022-10-16T15:31:36;49.20;;;32.70;;
57105;SDS011;62662;56.788;23.942;2022-10-16T15:34:04;48.17;;;32.63;;
57105;SDS011;62662;56.788;23.942;2022-10-16T15:36:36;51.60;;;32.42;;
57105;SDS011;62662;56.788;23.942;2022-10-16T15:39:04;42.75;;;29.52;;
57105;SDS011;62662;56.788;23.942;2022-10-16T15:41:46;39.40;;;29.13;;
57105;SDS011;62662;56.788;23.942;2022-10-16T15:44:17;42.83;;;31.23;;
57105;SDS011;62662;56.788;23.942;2022-10-16T15:46:45;40.08;;;29.10;;
57105;SDS011;62662;56.788;23.942;2022-10-16T15:49:13;40.80;;;29.55;;
57105;SDS011;62662;56.788;23.942;2022-10-16T15:51:41;42.90;;;28.27;;
57105;SDS011;62662;56.788;23.942;2022-10-16T15:54:09;43.15;;;30.30;;
57105;SDS011;62662;56.788;23.942;2022-10-16T15:56:37;42.10;;;29.85;;
57105;SDS011;62662;56.788;23.942;2022-10-16T15:59:04;45.08;;;31.85;;
57105;SDS011;62662;56.788;23.942;2022-10-16T16:01:33;40.35;;;31.00;;
57105;SDS011;62662;56.788;23.942;2022-10-16T16:04:01;46.67;;;32.70;;
57105;SDS011;62662;56.788;23.942;2022-10-16T16:06:45;46.85;;;31.65;;
57105;SDS011;62662;56.788;23.942;2022-10-16T16:09:13;45.00;;;32.00;;
57105;SDS011;62662;56.788;23.942;2022-10-16T16:11:41;43.63;;;32.95;;
57105;SDS011;62662;56.788;23.942;2022-10-16T16:14:12;45.28;;;32.63;;
57105;SDS011;62662;56.788;23.942;2022-10-16T16:16:40;39.53;;;30.27;;
57105;SDS011;62662;56.788;23.942;2022-10-16T16:19:10;48.55;;;33.63;;
57105;SDS011;62662;56.788;23.942;2022-10-16T16:21:38;48.58;;;33.25;;
57105;SDS011;62662;56.788;23.942;2022-10-16T16:24:05;42.90;;;31.73;;
57105;SDS011;62662;56.788;23.942;2022-10-16T16:26:35;43.95;;;32.85;;
57105;SDS011;62662;56.788;23.942;2022-10-16T16:29:06;43.13;;;32.25;;
57105;SDS011;62662;56.788;23.942;2022-10-16T16:31:33;41.17;;;31.25;;
57105;SDS011;62662;56.788;23.942;2022-10-16T16:34:01;46.15;;;33.00;;
57105;SDS011;62662;56.788;23.942;2022-10-16T16:36:29;50.10;;;33.25;;
57105;SDS011;62662;56.788;23.942;2022-10-16T16:38:56;45.95;;;31.23;;
57105;SDS011;62662;56.788;23.942;2022-10-16T16:41:25;46.72;;;30.88;;
57105;SDS011;62662;56.788;23.942;2022-10-16T16:43:55;43.90;;;32.15;;
57105;SDS011;62662;56.788;23.942;2022-10-16T16:46:28;42.67;;;31.27;;
57105;SDS011;62662;56.788;23.942;2022-10-16T16:48:57;41.45;;;29.42;;
57105;SDS011;62662;56.788;23.942;2022-10-16T16:51:25;40.15;;;28.83;;
57105;SDS011;62662;56.788;23.942;2022-10-16T16:53:53;34.03;;;26.05;;
57105;SDS011;62662;56.788;23.942;2022-10-16T16:56:23;37.53;;;26.45;;
57105;SDS011;62662;56.788;23.942;2022-10-16T16:58:53;33.15;;;24.55;;
57105;SDS011;62662;56.788;23.942;2022-10-16T17:01:24;35.33;;;25.42;;
57105;SDS011;62662;56.788;23.942;2022-10-16T17:03:54;37.25;;;25.35;;
57105;SDS011;62662;56.788;23.942;2022-10-16T17:06:25;33.92;;;24.50;;